createdAt,value
2023-04-15T00:02:00.199Z,5.93
2023-04-15T00:04:29.011Z,6.40
2023-04-15T00:06:57.296Z,6.45
2023-04-15T00:09:25.520Z,6.55
2023-04-15T00:11:55.126Z,6.30
2023-04-15T00:14:23.367Z,6.68
2023-04-15T00:16:56.235Z,7.22
2023-04-15T00:19:25.367Z,7.60
2023-04-15T00:21:53.551Z,7.40
2023-04-15T00:24:21.821Z,6.53
2023-04-15T00:26:50.005Z,6.53
2023-04-15T00:29:19.638Z,6.15
2023-04-15T00:31:48.144Z,5.95
2023-04-15T00:34:16.754Z,5.90
2023-04-15T00:36:45.018Z,6.50
2023-04-15T00:39:13.648Z,6.40
2023-04-15T00:41:44.601Z,5.95
2023-04-15T00:44:13.849Z,6.47
2023-04-15T00:46:45.643Z,6.00
2023-04-15T00:49:14.289Z,5.97
2023-04-15T00:51:42.442Z,6.22
2023-04-15T00:54:10.731Z,5.72
2023-04-15T00:56:40.350Z,6.20
2023-04-15T00:59:09.244Z,6.38
2023-04-15T01:01:38.693Z,6.55
2023-04-15T01:04:10.321Z,5.53
2023-04-15T01:06:39.207Z,5.97
2023-04-15T01:09:07.433Z,6.40
2023-04-15T01:11:36.430Z,5.47
2023-04-15T01:14:04.887Z,6.15
2023-04-15T01:16:33.390Z,5.35
2023-04-15T01:19:02.057Z,5.18
2023-04-15T01:21:31.955Z,6.03
2023-04-15T01:24:00.648Z,5.40
2023-04-15T01:26:30.849Z,5.00
2023-04-15T01:28:59.353Z,5.45
2023-04-15T01:31:27.747Z,6.00
2023-04-15T01:33:55.957Z,5.47
2023-04-15T01:36:42.582Z,6.20
2023-04-15T01:39:11.052Z,6.13
2023-04-15T01:41:40.917Z,5.35
2023-04-15T01:44:10.460Z,5.18
2023-04-15T01:46:42.713Z,5.78
2023-04-15T01:49:12.572Z,5.75
2023-04-15T01:51:41.956Z,5.32
2023-04-15T01:54:11.605Z,4.95
2023-04-15T01:56:42.443Z,5.03
2023-04-15T01:59:12.656Z,5.13
2023-04-15T02:01:42.199Z,5.43
2023-04-15T02:04:16.597Z,5.70
2023-04-15T02:06:46.364Z,4.68
2023-04-15T02:09:16.831Z,13.98
2023-04-15T02:11:49.927Z,6.07
2023-04-15T02:14:21.037Z,6.65
2023-04-15T02:16:50.522Z,5.35
2023-04-15T02:19:19.975Z,6.10
2023-04-15T02:21:49.462Z,6.43
2023-04-15T02:24:20.753Z,6.40
2023-04-15T02:26:51.623Z,6.32
2023-04-15T02:29:21.113Z,6.68
2023-04-15T02:31:50.582Z,6.53
2023-04-15T02:34:20.116Z,7.15
2023-04-15T02:36:49.811Z,7.13
2023-04-15T02:39:19.225Z,6.82
2023-04-15T02:41:52.536Z,8.25
2023-04-15T02:44:25.018Z,6.93
2023-04-15T02:46:59.004Z,5.32
2023-04-15T02:49:29.909Z,4.75
2023-04-15T02:52:00.185Z,4.35
2023-04-15T02:54:30.026Z,4.50
2023-04-15T02:56:59.890Z,4.40
2023-04-15T02:59:30.900Z,4.32
2023-04-15T03:02:01.089Z,4.03
2023-04-15T03:04:30.969Z,3.97
2023-04-15T03:07:01.073Z,3.83
2023-04-15T03:09:30.523Z,4.07
2023-04-15T03:12:01.296Z,4.03
2023-04-15T03:14:32.337Z,3.63
2023-04-15T03:17:02.401Z,3.45
2023-04-15T03:19:31.914Z,3.58
2023-04-15T03:22:01.307Z,3.53
2023-04-15T03:24:30.909Z,3.20
2023-04-15T03:27:01.796Z,3.40
2023-04-15T03:29:32.621Z,3.38
2023-04-15T03:32:02.058Z,3.50
2023-04-15T03:34:35.365Z,3.70
2023-04-15T03:37:06.923Z,3.63
2023-04-15T03:39:36.932Z,3.78
2023-04-15T03:42:06.309Z,3.40
2023-04-15T03:44:37.258Z,3.20
2023-04-15T03:47:06.783Z,3.50
2023-04-15T03:49:37.281Z,3.47
2023-04-15T03:52:07.138Z,3.35
2023-04-15T03:54:36.503Z,3.03
2023-04-15T03:57:05.891Z,3.55
2023-04-15T03:59:36.720Z,4.93
2023-04-15T04:02:06.169Z,5.65
2023-04-15T04:04:35.589Z,6.97
2023-04-15T04:07:05.013Z,5.75
2023-04-15T04:09:34.433Z,5.00
2023-04-15T04:12:04.269Z,5.40
2023-04-15T04:14:33.621Z,5.85
2023-04-15T04:17:04.400Z,5.07
2023-04-15T04:19:34.048Z,5.20
2023-04-15T04:22:03.450Z,4.97
2023-04-15T04:24:33.093Z,5.53
2023-04-15T04:27:02.480Z,4.95
2023-04-15T04:29:32.007Z,3.30
2023-04-15T04:32:01.495Z,4.13
2023-04-15T04:34:32.751Z,3.58
2023-04-15T04:37:02.339Z,3.67
2023-04-15T04:39:31.858Z,3.55
2023-04-15T04:42:01.279Z,3.45
2023-04-15T04:44:30.687Z,3.50
2023-04-15T04:47:00.162Z,3.40
2023-04-15T04:49:29.522Z,4.03
2023-04-15T04:52:00.700Z,3.55
2023-04-15T04:54:31.224Z,3.80
2023-04-15T04:57:00.900Z,4.10
2023-04-15T04:59:30.374Z,4.03
2023-04-15T05:01:59.876Z,4.15
2023-04-15T05:04:29.292Z,3.85
2023-04-15T05:07:00.797Z,4.20
2023-04-15T05:09:32.510Z,4.47
2023-04-15T05:12:01.972Z,4.00
2023-04-15T05:14:32.300Z,3.83
2023-04-15T05:17:01.844Z,3.67
2023-04-15T05:19:31.283Z,3.40
2023-04-15T05:22:02.413Z,4.10
2023-04-15T05:24:31.815Z,4.20
2023-04-15T05:27:01.947Z,4.10
2023-04-15T05:29:31.395Z,3.58
2023-04-15T05:32:00.839Z,4.57
2023-04-15T05:34:30.520Z,3.60
2023-04-15T05:37:01.451Z,3.75
2023-04-15T05:39:32.643Z,2.97
2023-04-15T05:42:02.264Z,3.13
2023-04-15T05:44:31.708Z,4.53
2023-04-15T05:47:01.417Z,4.53
2023-04-15T05:49:31.106Z,3.97
2023-04-15T05:52:01.872Z,4.65
2023-04-15T05:54:31.366Z,4.50
2023-04-15T05:57:01.813Z,4.38
2023-04-15T05:59:31.220Z,3.88
2023-04-15T06:02:00.975Z,5.25
2023-04-15T06:04:30.520Z,4.97
2023-04-15T06:07:01.501Z,3.20
2023-04-15T06:09:30.943Z,4.13
2023-04-15T06:12:01.736Z,3.58
2023-04-15T06:14:31.136Z,3.47
2023-04-15T06:17:00.563Z,3.28
2023-04-15T06:19:30.461Z,3.45
2023-04-15T06:22:01.592Z,3.40
2023-04-15T06:24:31.619Z,3.85
2023-04-15T06:27:02.210Z,4.15
2023-04-15T06:29:31.719Z,5.18
2023-04-15T06:32:01.148Z,4.85
2023-04-15T06:34:30.803Z,5.40
2023-04-15T06:37:02.648Z,4.63
2023-04-15T06:39:33.366Z,5.68
2023-04-15T06:42:03.456Z,4.68
2023-04-15T06:44:34.015Z,4.30
2023-04-15T06:47:03.579Z,4.53
2023-04-15T06:49:33.761Z,3.78
2023-04-15T06:52:05.329Z,4.75
2023-04-15T06:54:34.724Z,5.28
2023-04-15T06:57:04.200Z,5.22
2023-04-15T06:59:33.814Z,3.70
2023-04-15T07:02:03.425Z,4.30
2023-04-15T07:04:32.927Z,5.00
2023-04-15T07:07:02.692Z,7.72
2023-04-15T07:09:34.309Z,5.55
2023-04-15T07:12:03.911Z,5.03
2023-04-15T07:14:33.294Z,5.25
2023-04-15T07:17:02.798Z,4.70
2023-04-15T07:19:32.189Z,7.57
2023-04-15T07:22:02.308Z,5.10
2023-04-15T07:24:33.124Z,3.70
2023-04-15T07:27:03.060Z,4.30
2023-04-15T07:29:32.575Z,4.50
2023-04-15T07:32:02.066Z,4.38
2023-04-15T07:34:32.754Z,4.57
2023-04-15T07:37:02.223Z,6.13
2023-04-15T07:39:32.995Z,4.47
2023-04-15T07:42:02.692Z,5.70
2023-04-15T07:44:32.439Z,8.02
2023-04-15T07:47:04.250Z,6.90
2023-04-15T07:49:33.671Z,4.60
2023-04-15T07:52:03.107Z,5.30
2023-04-15T07:54:33.917Z,3.97
2023-04-15T07:57:03.900Z,4.72
2023-04-15T07:59:33.576Z,4.63
2023-04-15T08:02:03.588Z,5.25
2023-04-15T08:04:34.169Z,4.57
2023-04-15T08:07:04.333Z,4.20
2023-04-15T08:09:35.693Z,3.95
2023-04-15T08:12:05.705Z,8.30
2023-04-15T08:14:36.544Z,19.52
2023-04-15T08:17:06.705Z,4.20
2023-04-15T08:19:36.117Z,5.28
2023-04-15T08:22:05.687Z,5.72
2023-04-15T08:24:41.568Z,3.65
2023-04-15T08:27:10.996Z,3.75
2023-04-15T08:29:40.722Z,3.90
2023-04-15T08:32:10.724Z,7.93
2023-04-15T08:34:40.169Z,8.13
2023-04-15T08:37:10.810Z,7.00
2023-04-15T08:39:42.365Z,4.10
2023-04-15T08:42:17.429Z,6.05
2023-04-15T08:44:47.796Z,3.92
2023-04-15T08:47:22.806Z,5.30
2023-04-15T08:49:54.277Z,4.97
2023-04-15T08:52:23.738Z,4.70
2023-04-15T08:54:58.210Z,3.80
2023-04-15T08:57:28.672Z,29.17
2023-04-15T08:59:58.271Z,10.10
2023-04-15T09:02:28.533Z,4.68
2023-04-15T09:04:58.064Z,4.43
2023-04-15T09:07:27.808Z,5.25
2023-04-15T09:09:59.973Z,12.68
2023-04-15T09:12:29.629Z,4.03
2023-04-15T09:14:59.202Z,4.13
2023-04-15T09:17:28.699Z,6.20
2023-04-15T09:20:10.501Z,4.25
2023-04-15T09:22:40.780Z,3.72
2023-04-15T09:25:32.782Z,4.40
2023-04-15T09:28:05.448Z,6.45
2023-04-15T09:30:35.320Z,6.60
2023-04-15T09:33:08.310Z,5.47
2023-04-15T09:35:38.336Z,5.43
2023-04-15T09:38:09.787Z,5.75
2023-04-15T09:40:42.288Z,7.65
2023-04-15T09:43:13.048Z,4.93
2023-04-15T09:45:50.018Z,6.22
2023-04-15T09:48:22.070Z,5.47
2023-04-15T09:50:53.733Z,6.32
2023-04-15T09:53:24.251Z,4.60
2023-04-15T09:55:56.318Z,6.25
2023-04-15T09:58:27.649Z,5.50
2023-04-15T10:00:58.690Z,12.30
2023-04-15T10:03:30.124Z,5.53
2023-04-15T10:06:01.135Z,7.55
2023-04-15T10:08:32.957Z,9.57
2023-04-15T10:11:05.226Z,8.60
2023-04-15T10:13:37.415Z,8.75
2023-04-15T10:16:11.981Z,9.02
2023-04-15T10:18:46.281Z,7.03
2023-04-15T10:21:18.664Z,5.13
2023-04-15T10:23:48.943Z,4.45
2023-04-15T10:26:19.887Z,5.55
2023-04-15T10:28:49.574Z,5.90
2023-04-15T10:31:20.198Z,5.60
2023-04-15T10:33:50.827Z,6.28
2023-04-15T10:36:20.793Z,5.47
2023-04-15T10:38:50.241Z,9.65
2023-04-15T10:41:22.851Z,13.40
2023-04-15T10:43:54.574Z,10.57
2023-04-15T10:46:28.252Z,9.70
2023-04-15T10:48:57.862Z,13.35
2023-04-15T10:51:32.635Z,6.68
2023-04-15T10:54:02.352Z,4.55
2023-04-15T10:56:33.680Z,5.50
2023-04-15T10:59:03.144Z,5.70
2023-04-15T11:01:51.700Z,4.43
2023-04-15T11:04:52.526Z,6.00
2023-04-15T11:07:42.435Z,5.50
2023-04-15T11:10:56.556Z,3.95
2023-04-15T11:13:31.845Z,4.20
2023-04-15T11:16:04.526Z,5.85
2023-04-15T11:18:35.831Z,14.00
2023-04-15T11:21:09.606Z,5.10
2023-04-15T11:23:41.424Z,6.32
2023-04-15T11:26:12.582Z,4.20
2023-04-15T11:28:45.020Z,8.13
2023-04-15T11:31:15.646Z,6.75
2023-04-15T11:33:54.644Z,10.63
2023-04-15T11:36:27.239Z,9.57
2023-04-15T11:38:58.632Z,12.73
2023-04-15T11:41:28.355Z,6.75
2023-04-15T11:43:59.077Z,5.15
2023-04-15T11:46:32.467Z,6.07
2023-04-15T11:49:02.602Z,7.00
2023-04-15T11:51:34.420Z,5.72
2023-04-15T11:54:03.797Z,5.10
2023-04-15T11:56:32.491Z,4.05
2023-04-15T11:59:02.307Z,5.20
2023-04-15T12:01:35.186Z,5.85
2023-04-15T12:04:05.254Z,4.55
2023-04-15T12:06:35.127Z,3.72
2023-04-15T12:09:09.823Z,4.07
2023-04-15T12:11:43.641Z,3.88
2023-04-15T12:14:21.141Z,4.68
2023-04-15T12:16:52.596Z,3.63
2023-04-15T12:19:25.979Z,3.70
2023-04-15T12:22:00.471Z,3.95
2023-04-15T12:24:29.587Z,6.25
2023-04-15T12:26:59.200Z,4.30
2023-04-15T12:29:30.027Z,4.00
2023-04-15T12:32:00.523Z,3.83
2023-04-15T12:34:30.757Z,4.57
2023-04-15T12:37:00.830Z,4.20
2023-04-15T12:39:32.980Z,3.53
2023-04-15T12:42:01.733Z,4.32
2023-04-15T12:44:31.647Z,4.43
2023-04-15T12:47:00.971Z,3.88
2023-04-15T12:49:29.968Z,4.95
2023-04-15T12:52:00.061Z,4.00
2023-04-15T12:54:29.313Z,3.25
2023-04-15T12:56:58.294Z,3.80
2023-04-15T12:59:27.104Z,3.78
2023-04-15T13:01:57.374Z,3.97
2023-04-15T13:04:25.808Z,7.40
2023-04-15T13:06:54.096Z,7.88
2023-04-15T13:09:22.426Z,5.97
2023-04-15T13:11:51.163Z,4.97
2023-04-15T13:14:19.392Z,3.92
2023-04-15T13:16:47.718Z,3.60
2023-04-15T13:19:17.399Z,3.28
2023-04-15T13:21:45.730Z,3.38
2023-04-15T13:24:14.048Z,3.70
2023-04-15T13:26:42.842Z,4.10
2023-04-15T13:29:12.262Z,5.90
2023-04-15T13:31:40.608Z,5.75
2023-04-15T13:34:08.843Z,3.40
2023-04-15T13:36:38.416Z,3.25
2023-04-15T13:39:06.672Z,3.97
2023-04-15T13:41:34.870Z,6.90
2023-04-15T13:44:03.378Z,5.47
2023-04-15T13:46:31.770Z,5.47
2023-04-15T13:49:00.357Z,4.45
2023-04-15T13:51:28.599Z,3.97
2023-04-15T13:53:58.460Z,3.90
2023-04-15T13:56:26.723Z,4.20
2023-04-15T13:58:59.001Z,4.22
2023-04-15T14:01:27.478Z,4.07
2023-04-15T14:03:55.823Z,3.50
2023-04-15T14:06:24.288Z,4.22
2023-04-15T14:08:53.031Z,5.38
2023-04-15T14:11:22.714Z,5.70
2023-04-15T14:13:51.083Z,5.05
2023-04-15T14:16:19.437Z,5.10
2023-04-15T14:18:47.761Z,4.65
2023-04-15T14:21:16.175Z,4.88
2023-04-15T14:23:44.778Z,3.83
2023-04-15T14:26:13.764Z,5.03
2023-04-15T14:28:45.106Z,7.00
2023-04-15T14:31:14.230Z,5.28
2023-04-15T14:33:42.596Z,9.48
2023-04-15T14:36:11.526Z,11.05
2023-04-15T14:38:40.167Z,10.98
2023-04-15T14:41:09.508Z,9.27
2023-04-15T14:43:40.256Z,6.47
2023-04-15T14:46:10.119Z,7.22
2023-04-15T14:48:38.486Z,7.65
2023-04-15T14:51:07.336Z,7.28
2023-04-15T14:53:35.853Z,6.70
2023-04-15T14:56:04.333Z,6.35
2023-04-15T14:58:33.318Z,6.15
2023-04-15T15:01:02.012Z,7.05
2023-04-15T15:03:32.085Z,10.80
2023-04-15T15:06:00.641Z,13.10
2023-04-15T15:08:28.918Z,20.92
2023-04-15T15:10:57.164Z,13.10
2023-04-15T15:13:25.471Z,8.25
2023-04-15T15:15:54.079Z,7.63
2023-04-15T15:18:22.447Z,9.70
2023-04-15T15:20:52.280Z,8.65
2023-04-15T15:23:20.518Z,10.50
2023-04-15T15:25:48.740Z,8.93
2023-04-15T15:28:17.191Z,10.45
2023-04-15T15:30:45.435Z,6.80
2023-04-15T15:33:13.894Z,6.43
2023-04-15T15:35:42.214Z,6.03
2023-04-15T15:38:12.957Z,9.23
2023-04-15T15:40:42.047Z,12.65
2023-04-15T15:43:10.503Z,15.43
2023-04-15T15:45:38.860Z,12.13
2023-04-15T15:48:07.806Z,9.52
2023-04-15T15:50:36.403Z,7.07
2023-04-15T15:53:04.755Z,7.38
2023-04-15T15:55:34.952Z,8.82
2023-04-15T15:58:03.172Z,4.88
2023-04-15T16:00:31.428Z,6.85
2023-04-15T16:05:31.061Z,4.97
2023-04-15T16:07:59.409Z,7.32
2023-04-15T16:10:27.765Z,7.32
2023-04-15T16:12:57.514Z,8.05
2023-04-15T16:15:26.901Z,9.90
2023-04-15T16:17:55.309Z,11.00
2023-04-15T16:20:23.778Z,12.13
2023-04-15T16:22:52.100Z,9.60
2023-04-15T16:25:20.477Z,7.78
2023-04-15T16:28:00.725Z,7.50
2023-04-15T16:30:38.814Z,6.82
2023-04-15T16:33:08.167Z,7.47
2023-04-15T16:35:36.851Z,9.65
2023-04-15T16:38:05.073Z,10.38
2023-04-15T16:40:34.038Z,10.77
2023-04-15T16:43:02.337Z,12.00
2023-04-15T16:45:30.579Z,8.55
2023-04-15T16:48:00.369Z,5.10
2023-04-15T16:50:28.800Z,6.18
2023-04-15T16:52:57.006Z,6.22
2023-04-15T16:55:25.466Z,5.05
2023-04-15T16:58:03.277Z,5.38
2023-04-15T17:00:33.314Z,4.78
2023-04-15T17:03:03.241Z,5.93
2023-04-15T17:05:31.893Z,5.10
2023-04-15T17:08:00.198Z,5.78
2023-04-15T17:10:29.183Z,6.10
2023-04-15T17:12:57.910Z,6.70
2023-04-15T17:15:27.433Z,8.20
2023-04-15T17:18:08.689Z,8.40
2023-04-15T17:20:41.261Z,7.10
2023-04-15T17:23:10.780Z,9.57
2023-04-15T17:25:39.853Z,11.90
2023-04-15T17:28:10.923Z,11.10
2023-04-15T17:30:41.877Z,10.10
2023-04-15T17:33:59.147Z,10.60
2023-04-15T17:36:39.798Z,11.05
2023-04-15T17:39:28.082Z,10.45
2023-04-15T17:42:16.958Z,11.63
2023-04-15T17:45:05.713Z,16.50
2023-04-15T17:47:53.858Z,15.30
2023-04-15T17:50:43.550Z,13.17
2023-04-15T17:53:31.834Z,12.35
2023-04-15T17:56:21.108Z,10.23
2023-04-15T17:59:09.974Z,9.13
2023-04-15T18:01:59.768Z,9.65
2023-04-15T18:04:48.084Z,10.70
2023-04-15T18:07:37.894Z,12.35
2023-04-15T18:10:26.087Z,11.50
2023-04-15T18:13:14.308Z,11.77
2023-04-15T18:16:02.504Z,10.10
2023-04-15T18:18:50.740Z,11.73
2023-04-15T18:21:19.099Z,12.75
2023-04-15T18:23:48.750Z,16.85
2023-04-15T18:26:17.166Z,14.68
2023-04-15T18:28:45.478Z,15.68
2023-04-15T18:31:13.813Z,14.10
2023-04-15T18:33:42.166Z,10.25
2023-04-15T18:36:11.025Z,10.27
2023-04-15T18:38:39.241Z,10.25
2023-04-15T18:41:10.072Z,8.38
2023-04-15T18:43:38.669Z,10.45
2023-04-15T18:46:10.175Z,10.55
2023-04-15T18:48:38.547Z,10.48
2023-04-15T18:51:06.878Z,9.90
2023-04-15T18:53:35.269Z,10.35
2023-04-15T18:56:03.569Z,10.80
2023-04-15T18:59:27.900Z,10.13
2023-04-15T19:01:21.655Z,9.80
2023-04-15T19:03:50.296Z,9.13
2023-04-15T19:06:18.621Z,9.55
2023-04-15T19:08:46.896Z,10.38
2023-04-15T19:11:15.754Z,9.30
2023-04-15T19:13:45.476Z,9.82
2023-04-15T19:16:14.075Z,11.07
2023-04-15T19:18:43.078Z,9.88
2023-04-15T19:21:12.117Z,10.20
2023-04-15T19:23:42.853Z,10.93
2023-04-15T19:26:12.489Z,10.15
2023-04-15T19:28:40.957Z,10.90
2023-04-15T19:31:10.755Z,10.30
2023-04-15T19:33:39.504Z,11.05
2023-04-15T19:36:09.184Z,10.20
2023-04-15T19:38:37.588Z,11.05
2023-04-15T19:41:05.931Z,11.18
2023-04-15T19:43:34.235Z,10.27
2023-04-15T19:46:02.532Z,10.60
2023-04-15T19:48:32.234Z,10.98
2023-04-15T19:51:00.635Z,10.20
2023-04-15T19:53:28.888Z,11.02
2023-04-15T19:55:57.579Z,11.13
2023-04-15T19:58:26.132Z,11.45
2023-04-15T20:00:54.745Z,10.60
2023-04-15T20:03:23.064Z,11.35
2023-04-15T20:05:52.908Z,11.18
2023-04-15T20:08:21.197Z,10.45
2023-04-15T20:10:49.583Z,10.40
2023-04-15T20:13:17.862Z,10.55
2023-04-15T20:15:46.189Z,9.50
2023-04-15T20:18:14.537Z,9.65
2023-04-15T20:20:42.790Z,8.90
2023-04-15T20:23:12.437Z,8.98
2023-04-15T20:25:41.033Z,8.70
2023-04-15T20:28:09.498Z,9.75
2023-04-15T20:30:39.528Z,8.10
2023-04-15T20:33:08.193Z,7.80
2023-04-15T20:35:36.651Z,7.53
2023-04-15T20:38:05.790Z,7.88
2023-04-15T20:40:35.451Z,9.15
2023-04-15T20:43:03.730Z,7.88
2023-04-15T20:45:32.053Z,8.05
2023-04-15T20:48:00.597Z,7.30
2023-04-15T20:50:28.826Z,7.22
2023-04-15T20:52:57.097Z,8.23
2023-04-15T20:55:25.374Z,7.40
2023-04-15T20:57:55.056Z,8.35
2023-04-15T21:00:23.337Z,7.70
2023-04-15T21:02:52.465Z,7.78
2023-04-15T21:05:20.883Z,8.23
2023-04-15T21:07:49.110Z,7.70
2023-04-15T21:10:17.431Z,8.10
2023-04-15T21:12:46.160Z,7.82
2023-04-15T21:15:15.829Z,7.50
2023-04-15T21:17:44.152Z,6.70
2023-04-15T21:20:13.242Z,6.43
2023-04-15T21:22:42.313Z,5.75
2023-04-15T21:25:10.995Z,5.82
2023-04-15T21:27:39.477Z,5.63
2023-04-15T21:30:08.968Z,5.45
2023-04-15T21:32:38.665Z,5.28
2023-04-15T21:35:08.047Z,4.75
2023-04-15T21:37:37.545Z,4.93
2023-04-15T21:40:07.101Z,5.05
2023-04-15T21:42:35.404Z,4.97
2023-04-15T21:45:03.718Z,4.82
2023-04-15T21:48:04.584Z,5.63
2023-04-15T21:50:24.056Z,5.05
2023-04-15T21:52:52.416Z,5.10
2023-04-15T21:55:23.406Z,4.95
2023-04-15T21:57:51.813Z,4.45
2023-04-15T22:00:21.327Z,4.90
2023-04-15T22:02:49.775Z,4.70
2023-04-15T22:05:18.408Z,4.82
2023-04-15T22:07:48.052Z,5.28
2023-04-15T22:10:16.350Z,4.90
2023-04-15T22:12:44.647Z,5.30
2023-04-15T22:15:12.984Z,4.90
2023-04-15T22:17:41.268Z,5.03
2023-04-15T22:20:10.657Z,5.28
2023-04-15T22:22:43.608Z,4.55
2023-04-15T22:25:16.230Z,4.43
2023-04-15T22:27:44.539Z,5.32
2023-04-15T22:30:13.764Z,4.80
2023-04-15T22:32:42.232Z,4.90
2023-04-15T22:35:10.700Z,5.13
2023-04-15T22:37:38.980Z,4.78
2023-04-15T22:40:08.309Z,4.97
2023-04-15T22:42:38.143Z,5.32
2023-04-15T22:45:07.611Z,4.57
2023-04-15T22:47:35.934Z,4.90
2023-04-15T22:50:04.201Z,5.10
2023-04-15T22:52:33.161Z,5.15
2023-04-15T22:55:01.606Z,5.40
2023-04-15T22:57:32.001Z,5.40
2023-04-15T23:00:01.765Z,4.82
2023-04-15T23:02:33.872Z,5.53
2023-04-15T23:05:10.689Z,5.43
2023-04-15T23:07:40.700Z,5.97
2023-04-15T23:10:10.184Z,6.20
2023-04-15T23:12:38.501Z,6.40
2023-04-15T23:15:09.748Z,6.15
2023-04-15T23:17:38.320Z,6.40
2023-04-15T23:20:07.715Z,5.70
2023-04-15T23:22:37.597Z,5.85
2023-04-15T23:25:06.449Z,5.35
2023-04-15T23:27:34.625Z,5.70
2023-04-15T23:30:03.118Z,5.63
2023-04-15T23:32:34.090Z,5.82
2023-04-15T23:35:02.477Z,5.30
2023-04-15T23:37:32.707Z,5.18
2023-04-15T23:40:01.095Z,5.00
2023-04-15T23:42:32.433Z,4.80
2023-04-15T23:45:00.854Z,4.43
2023-04-15T23:47:29.089Z,4.68
2023-04-15T23:49:58.750Z,4.25
2023-04-15T23:52:27.116Z,4.25
2023-04-15T23:54:55.297Z,4.47
2023-04-15T23:57:23.675Z,4.32
2023-04-15T23:59:51.922Z,4.75
